sensor_id;sensor_type;location;lat;lon;timestamp;pressure;altitude;pressure_sealevel;temperature
76381;BMP280;65202;52.520;10.528;2023-03-31T00:00:59;99908.00;;;11.92
76381;BMP280;65202;52.520;10.528;2023-03-31T00:03:27;99896.69;;;12.07
76381;BMP280;65202;52.520;10.528;2023-03-31T00:05:59;99900.00;;;12.06
76381;BMP280;65202;52.520;10.528;2023-03-31T00:08:28;99896.44;;;11.98
76381;BMP280;65202;52.520;10.528;2023-03-31T00:11:05;99898.16;;;11.99
76381;BMP280;65202;52.520;10.528;2023-03-31T00:13:34;99900.06;;;12.09
76381;BMP280;65202;52.520;10.528;2023-03-31T00:16:05;99898.00;;;11.93
76381;BMP280;65202;52.520;10.528;2023-03-31T00:18:35;99888.03;;;11.95
76381;BMP280;65202;52.520;10.528;2023-03-31T00:21:07;99884.75;;;11.97
76381;BMP280;65202;52.520;10.528;2023-03-31T00:23:41;99878.81;;;11.95
76381;BMP280;65202;52.520;10.528;2023-03-31T00:26:08;99880.56;;;11.98
76381;BMP280;65202;52.520;10.528;2023-03-31T00:28:35;99868.00;;;11.96
76381;BMP280;65202;52.520;10.528;2023-03-31T00:31:02;99876.47;;;12.01
76381;BMP280;65202;52.520;10.528;2023-03-31T00:33:30;99869.59;;;11.94
76381;BMP280;65202;52.520;10.528;2023-03-31T00:35:57;99864.91;;;12.06
76381;BMP280;65202;52.520;10.528;2023-03-31T00:38:28;99862.34;;;12.05
76381;BMP280;65202;52.520;10.528;2023-03-31T00:40:56;99863.47;;;12.17
76381;BMP280;65202;52.520;10.528;2023-03-31T00:43:35;99864.31;;;12.16
76381;BMP280;65202;52.520;10.528;2023-03-31T00:46:10;99862.66;;;12.18
76381;BMP280;65202;52.520;10.528;2023-03-31T00:48:50;99866.22;;;12.26
76381;BMP280;65202;52.520;10.528;2023-03-31T00:51:27;99866.25;;;12.28
76381;BMP280;65202;52.520;10.528;2023-03-31T00:54:02;99859.56;;;12.28
76381;BMP280;65202;52.520;10.528;2023-03-31T00:56:36;99863.56;;;12.20
76381;BMP280;65202;52.520;10.528;2023-03-31T00:59:10;99861.88;;;12.21
76381;BMP280;65202;52.520;10.528;2023-03-31T01:01:42;99848.56;;;11.90
76381;BMP280;65202;52.520;10.528;2023-03-31T01:04:14;99848.16;;;12.07
76381;BMP280;65202;52.520;10.528;2023-03-31T01:06:50;99843.53;;;12.22
76381;BMP280;65202;52.520;10.528;2023-03-31T01:09:23;99843.72;;;11.95
76381;BMP280;65202;52.520;10.528;2023-03-31T01:11:51;99837.66;;;12.21
76381;BMP280;65202;52.520;10.528;2023-03-31T01:14:18;99831.91;;;12.25
76381;BMP280;65202;52.520;10.528;2023-03-31T01:16:45;99833.66;;;11.94
76381;BMP280;65202;52.520;10.528;2023-03-31T01:19:31;99826.38;;;12.04
76381;BMP280;65202;52.520;10.528;2023-03-31T01:22:32;99821.06;;;11.93
76381;BMP280;65202;52.520;10.528;2023-03-31T01:25:43;99814.16;;;12.18
76381;BMP280;65202;52.520;10.528;2023-03-31T01:34:24;99814.56;;;12.00
76381;BMP280;65202;52.520;10.528;2023-03-31T01:43:25;99798.41;;;11.90
76381;BMP280;65202;52.520;10.528;2023-03-31T01:46:10;99801.13;;;11.98
76381;BMP280;65202;52.520;10.528;2023-03-31T01:52:09;99793.69;;;12.00
76381;BMP280;65202;52.520;10.528;2023-03-31T01:55:10;99795.47;;;12.05
76381;BMP280;65202;52.520;10.528;2023-03-31T01:57:50;99784.53;;;12.03
76381;BMP280;65202;52.520;10.528;2023-03-31T02:00:29;99777.59;;;11.93
76381;BMP280;65202;52.520;10.528;2023-03-31T02:03:05;99766.94;;;12.02
76381;BMP280;65202;52.520;10.528;2023-03-31T02:05:56;99768.13;;;12.17
76381;BMP280;65202;52.520;10.528;2023-03-31T02:08:31;99768.63;;;12.01
76381;BMP280;65202;52.520;10.528;2023-03-31T02:11:03;99758.72;;;12.07
76381;BMP280;65202;52.520;10.528;2023-03-31T02:13:31;99756.28;;;12.10
76381;BMP280;65202;52.520;10.528;2023-03-31T02:16:05;99749.66;;;12.12
76381;BMP280;65202;52.520;10.528;2023-03-31T02:18:38;99754.66;;;12.12
76381;BMP280;65202;52.520;10.528;2023-03-31T02:21:08;99742.72;;;12.02
76381;BMP280;65202;52.520;10.528;2023-03-31T02:23:38;99745.19;;;12.01
76381;BMP280;65202;52.520;10.528;2023-03-31T02:26:10;99741.88;;;12.02
76381;BMP280;65202;52.520;10.528;2023-03-31T02:28:42;99734.44;;;12.06
76381;BMP280;65202;52.520;10.528;2023-03-31T02:31:34;99736.19;;;12.09
76381;BMP280;65202;52.520;10.528;2023-03-31T02:34:12;99731.94;;;12.06
76381;BMP280;65202;52.520;10.528;2023-03-31T02:36:41;99727.38;;;11.91
76381;BMP280;65202;52.520;10.528;2023-03-31T02:39:15;99727.63;;;11.66
76381;BMP280;65202;52.520;10.528;2023-03-31T02:41:47;99720.63;;;11.87
76381;BMP280;65202;52.520;10.528;2023-03-31T02:44:15;99717.94;;;11.79
76381;BMP280;65202;52.520;10.528;2023-03-31T02:46:43;99718.72;;;11.77
76381;BMP280;65202;52.520;10.528;2023-03-31T02:49:13;99722.06;;;11.77
76381;BMP280;65202;52.520;10.528;2023-03-31T02:54:58;99710.88;;;11.65
76381;BMP280;65202;52.520;10.528;2023-03-31T03:00:44;99707.34;;;11.55
76381;BMP280;65202;52.520;10.528;2023-03-31T03:03:36;99705.19;;;11.38
76381;BMP280;65202;52.520;10.528;2023-03-31T03:07:01;99694.91;;;11.60
76381;BMP280;65202;52.520;10.528;2023-03-31T03:09:53;99698.44;;;11.68
76381;BMP280;65202;52.520;10.528;2023-03-31T03:15:57;99696.81;;;11.70
76381;BMP280;65202;52.520;10.528;2023-03-31T03:18:27;99686.28;;;11.17
76381;BMP280;65202;52.520;10.528;2023-03-31T03:20:55;99679.78;;;11.57
76381;BMP280;65202;52.520;10.528;2023-03-31T03:23:22;99675.63;;;11.57
76381;BMP280;65202;52.520;10.528;2023-03-31T03:25:49;99670.56;;;11.22
76381;BMP280;65202;52.520;10.528;2023-03-31T03:28:17;99673.00;;;11.19
76381;BMP280;65202;52.520;10.528;2023-03-31T03:30:44;99669.22;;;11.36
76381;BMP280;65202;52.520;10.528;2023-03-31T03:33:12;99662.94;;;11.50
76381;BMP280;65202;52.520;10.528;2023-03-31T03:35:45;99649.94;;;11.33
76381;BMP280;65202;52.520;10.528;2023-03-31T03:38:12;99658.22;;;11.29
76381;BMP280;65202;52.520;10.528;2023-03-31T03:40:40;99659.06;;;11.30
76381;BMP280;65202;52.520;10.528;2023-03-31T03:43:07;99653.41;;;11.38
76381;BMP280;65202;52.520;10.528;2023-03-31T03:45:34;99652.00;;;11.14
76381;BMP280;65202;52.520;10.528;2023-03-31T03:48:01;99648.84;;;11.21
76381;BMP280;65202;52.520;10.528;2023-03-31T03:50:29;99646.03;;;11.09
76381;BMP280;65202;52.520;10.528;2023-03-31T03:52:56;99640.66;;;11.28
76381;BMP280;65202;52.520;10.528;2023-03-31T03:55:23;99637.91;;;11.18
76381;BMP280;65202;52.520;10.528;2023-03-31T03:57:51;99640.50;;;11.22
76381;BMP280;65202;52.520;10.528;2023-03-31T04:00:19;99626.72;;;11.05
76381;BMP280;65202;52.520;10.528;2023-03-31T04:02:46;99627.13;;;10.88
76381;BMP280;65202;52.520;10.528;2023-03-31T04:05:13;99620.81;;;11.03
76381;BMP280;65202;52.520;10.528;2023-03-31T04:07:41;99612.72;;;11.13
76381;BMP280;65202;52.520;10.528;2023-03-31T04:10:08;99611.47;;;10.96
76381;BMP280;65202;52.520;10.528;2023-03-31T04:12:36;99608.19;;;10.97
76381;BMP280;65202;52.520;10.528;2023-03-31T04:15:04;99600.59;;;10.96
76381;BMP280;65202;52.520;10.528;2023-03-31T04:17:31;99589.38;;;11.14
76381;BMP280;65202;52.520;10.528;2023-03-31T04:20:10;99588.94;;;10.96
76381;BMP280;65202;52.520;10.528;2023-03-31T04:22:39;99578.47;;;11.12
76381;BMP280;65202;52.520;10.528;2023-03-31T04:25:09;99577.59;;;11.10
76381;BMP280;65202;52.520;10.528;2023-03-31T04:27:44;99569.91;;;11.03
76381;BMP280;65202;52.520;10.528;2023-03-31T04:30:26;99572.59;;;11.10
76381;BMP280;65202;52.520;10.528;2023-03-31T04:33:01;99564.19;;;10.74
76381;BMP280;65202;52.520;10.528;2023-03-31T04:35:30;99562.06;;;10.89
76381;BMP280;65202;52.520;10.528;2023-03-31T04:38:20;99552.59;;;10.78
76381;BMP280;65202;52.520;10.528;2023-03-31T04:40:51;99548.72;;;10.89
76381;BMP280;65202;52.520;10.528;2023-03-31T04:43:20;99543.47;;;10.80
76381;BMP280;65202;52.520;10.528;2023-03-31T04:45:48;99539.66;;;10.60
76381;BMP280;65202;52.520;10.528;2023-03-31T04:48:15;99534.44;;;10.85
76381;BMP280;65202;52.520;10.528;2023-03-31T04:50:45;99525.44;;;10.93
76381;BMP280;65202;52.520;10.528;2023-03-31T04:53:13;99524.13;;;10.74
76381;BMP280;65202;52.520;10.528;2023-03-31T04:55:40;99517.53;;;10.76
76381;BMP280;65202;52.520;10.528;2023-03-31T04:58:07;99514.28;;;10.80
76381;BMP280;65202;52.520;10.528;2023-03-31T05:00:35;99507.50;;;10.76
76381;BMP280;65202;52.520;10.528;2023-03-31T05:03:02;99507.50;;;10.76
76381;BMP280;65202;52.520;10.528;2023-03-31T05:05:29;99501.13;;;10.89
76381;BMP280;65202;52.520;10.528;2023-03-31T05:07:57;99492.56;;;10.79
76381;BMP280;65202;52.520;10.528;2023-03-31T05:10:24;99495.59;;;10.67
76381;BMP280;65202;52.520;10.528;2023-03-31T05:12:52;99489.78;;;10.68
76381;BMP280;65202;52.520;10.528;2023-03-31T05:15:19;99480.84;;;10.78
76381;BMP280;65202;52.520;10.528;2023-03-31T05:17:47;99475.94;;;10.81
76381;BMP280;65202;52.520;10.528;2023-03-31T05:20:15;99480.84;;;10.78
76381;BMP280;65202;52.520;10.528;2023-03-31T05:22:42;99475.78;;;10.75
76381;BMP280;65202;52.520;10.528;2023-03-31T05:25:10;99465.94;;;10.83
76381;BMP280;65202;52.520;10.528;2023-03-31T05:27:45;99476.34;;;10.99
76381;BMP280;65202;52.520;10.528;2023-03-31T05:30:13;99464.69;;;11.00
76381;BMP280;65202;52.520;10.528;2023-03-31T05:32:42;99455.22;;;10.88
76381;BMP280;65202;52.520;10.528;2023-03-31T05:35:10;99458.66;;;10.93
76381;BMP280;65202;52.520;10.528;2023-03-31T05:37:37;99444.69;;;11.01
76381;BMP280;65202;52.520;10.528;2023-03-31T05:40:05;99442.06;;;10.97
76381;BMP280;65202;52.520;10.528;2023-03-31T05:42:34;99442.28;;;11.07
76381;BMP280;65202;52.520;10.528;2023-03-31T05:45:02;99438.09;;;11.06
76381;BMP280;65202;52.520;10.528;2023-03-31T05:47:31;99438.16;;;11.09
76381;BMP280;65202;52.520;10.528;2023-03-31T05:49:59;99431.59;;;11.14
76381;BMP280;65202;52.520;10.528;2023-03-31T05:52:26;99427.38;;;11.13
76381;BMP280;65202;52.520;10.528;2023-03-31T05:54:54;99428.19;;;11.12
76381;BMP280;65202;52.520;10.528;2023-03-31T05:57:21;99441.41;;;11.05
76381;BMP280;65202;52.520;10.528;2023-03-31T05:59:49;99438.09;;;11.06
76381;BMP280;65202;52.520;10.528;2023-03-31T06:02:16;99430.78;;;11.15
76381;BMP280;65202;52.520;10.528;2023-03-31T06:04:44;99431.72;;;11.20
76381;BMP280;65202;52.520;10.528;2023-03-31T06:07:11;99418.44;;;11.24
76381;BMP280;65202;52.520;10.528;2023-03-31T06:09:39;99425.13;;;11.24
76381;BMP280;65202;52.520;10.528;2023-03-31T06:12:07;99419.88;;;11.13
76381;BMP280;65202;52.520;10.528;2023-03-31T06:14:34;99425.03;;;11.19
76381;BMP280;65202;52.520;10.528;2023-03-31T06:17:01;99426.59;;;11.14
76381;BMP280;65202;52.520;10.528;2023-03-31T06:19:29;99419.28;;;11.25
76381;BMP280;65202;52.520;10.528;2023-03-31T06:21:57;99424.28;;;11.25
76381;BMP280;65202;52.520;10.528;2023-03-31T06:24:24;99417.47;;;11.16
76381;BMP280;65202;52.520;10.528;2023-03-31T06:26:52;99414.94;;;11.16
76381;BMP280;65202;52.520;10.528;2023-03-31T06:29:20;99415.88;;;11.21
76381;BMP280;65202;52.520;10.528;2023-03-31T06:31:47;99406.72;;;11.23
76381;BMP280;65202;52.520;10.528;2023-03-31T06:34:15;99407.63;;;11.25
76381;BMP280;65202;52.520;10.528;2023-03-31T06:36:44;99401.03;;;11.29
76381;BMP280;65202;52.520;10.528;2023-03-31T06:39:11;99404.34;;;11.29
76381;BMP280;65202;52.520;10.528;2023-03-31T06:41:39;99394.13;;;11.19
76381;BMP280;65202;52.520;10.528;2023-03-31T06:44:06;99396.03;;;11.30
76381;BMP280;65202;52.520;10.528;2023-03-31T06:46:34;99397.78;;;11.34
76381;BMP280;65202;52.520;10.528;2023-03-31T06:49:02;99381.97;;;11.38
76381;BMP280;65202;52.520;10.528;2023-03-31T06:51:30;99376.06;;;11.34
76381;BMP280;65202;52.520;10.528;2023-03-31T06:53:58;99369.78;;;11.13
76381;BMP280;65202;52.520;10.528;2023-03-31T06:56:27;99365.50;;;11.49
76381;BMP280;65202;52.520;10.528;2023-03-31T06:58:58;99374.78;;;11.51
76381;BMP280;65202;52.520;10.528;2023-03-31T07:01:28;99368.97;;;11.54
76381;BMP280;65202;52.520;10.528;2023-03-31T07:03:58;99364.03;;;11.60
76381;BMP280;65202;52.520;10.528;2023-03-31T07:06:26;99368.25;;;11.61
76381;BMP280;65202;52.520;10.528;2023-03-31T07:08:58;99363.31;;;11.64
76381;BMP280;65202;52.520;10.528;2023-03-31T07:11:27;99352.53;;;11.68
76381;BMP280;65202;52.520;10.528;2023-03-31T07:13:57;99362.66;;;11.74
76381;BMP280;65202;52.520;10.528;2023-03-31T07:16:38;99367.44;;;11.62
76381;BMP280;65202;52.520;10.528;2023-03-31T07:19:11;99356.63;;;11.64
76381;BMP280;65202;52.520;10.528;2023-03-31T07:21:38;99365.06;;;11.69
76381;BMP280;65202;52.520;10.528;2023-03-31T07:24:13;99362.69;;;11.77
76381;BMP280;65202;52.520;10.528;2023-03-31T07:26:46;99348.28;;;11.65
76381;BMP280;65202;52.520;10.528;2023-03-31T07:29:16;99354.03;;;11.60
76381;BMP280;65202;52.520;10.528;2023-03-31T07:31:57;99350.00;;;11.66
76381;BMP280;65202;52.520;10.528;2023-03-31T07:34:27;99355.72;;;11.61
76381;BMP280;65202;52.520;10.528;2023-03-31T07:36:57;99354.81;;;11.57
76381;BMP280;65202;52.520;10.528;2023-03-31T07:39:27;99360.00;;;11.66
76381;BMP280;65202;52.520;10.528;2023-03-31T07:41:57;99351.44;;;11.55
76381;BMP280;65202;52.520;10.528;2023-03-31T07:44:25;99348.91;;;11.54
76381;BMP280;65202;52.520;10.528;2023-03-31T07:46:53;99345.38;;;11.46
76381;BMP280;65202;52.520;10.528;2023-03-31T07:49:21;99350.81;;;11.67
76381;BMP280;65202;52.520;10.528;2023-03-31T07:51:49;99346.41;;;11.52
76381;BMP280;65202;52.520;10.528;2023-03-31T07:54:16;99337.59;;;11.74
76381;BMP280;65202;52.520;10.528;2023-03-31T07:56:43;99333.56;;;11.83
76381;BMP280;65202;52.520;10.528;2023-03-31T07:59:10;99326.81;;;11.79
76381;BMP280;65202;52.520;10.528;2023-03-31T08:01:38;99332.72;;;11.83
76381;BMP280;65202;52.520;10.528;2023-03-31T08:04:05;99325.75;;;11.67
76381;BMP280;65202;52.520;10.528;2023-03-31T08:06:32;99331.16;;;11.88
76381;BMP280;65202;52.520;10.528;2023-03-31T08:09:22;99317.47;;;11.71
76381;BMP280;65202;52.520;10.528;2023-03-31T08:12:39;99306.72;;;11.76
76381;BMP280;65202;52.520;10.528;2023-03-31T08:15:07;99310.38;;;11.49
76381;BMP280;65202;52.520;10.528;2023-03-31T08:17:35;99303.22;;;11.68
76381;BMP280;65202;52.520;10.528;2023-03-31T08:20:03;99295.59;;;11.62
76381;BMP280;65202;52.520;10.528;2023-03-31T08:22:36;99297.09;;;11.53
76381;BMP280;65202;52.520;10.528;2023-03-31T08:25:05;99295.44;;;11.53
76381;BMP280;65202;52.520;10.528;2023-03-31T08:27:38;99294.75;;;11.62
76381;BMP280;65202;52.520;10.528;2023-03-31T08:30:09;99306.59;;;11.70
76381;BMP280;65202;52.520;10.528;2023-03-31T08:32:37;99297.16;;;11.57
76381;BMP280;65202;52.520;10.528;2023-03-31T08:35:05;99295.78;;;11.71
76381;BMP280;65202;52.520;10.528;2023-03-31T08:37:33;99289.09;;;11.72
76381;BMP280;65202;52.520;10.528;2023-03-31T08:40:03;99281.06;;;11.45
76381;BMP280;65202;52.520;10.528;2023-03-31T08:42:38;99277.38;;;11.72
76381;BMP280;65202;52.520;10.528;2023-03-31T08:45:34;99273.44;;;11.86
76381;BMP280;65202;52.520;10.528;2023-03-31T08:48:11;99269.84;;;11.72
76381;BMP280;65202;52.520;10.528;2023-03-31T08:50:52;99270.09;;;11.86
76381;BMP280;65202;52.520;10.528;2023-03-31T08:53:30;99259.38;;;11.95
76381;BMP280;65202;52.520;10.528;2023-03-31T08:56:02;99253.47;;;11.92
76381;BMP280;65202;52.520;10.528;2023-03-31T08:58:41;99243.88;;;11.67
76381;BMP280;65202;52.520;10.528;2023-03-31T09:01:41;99224.31;;;11.98
76381;BMP280;65202;52.520;10.528;2023-03-31T09:09:47;99218.09;;;12.30
76381;BMP280;65202;52.520;10.528;2023-03-31T09:15:39;99210.03;;;11.94
76381;BMP280;65202;52.520;10.528;2023-03-31T09:18:26;99206.34;;;12.26
76381;BMP280;65202;52.520;10.528;2023-03-31T09:21:13;99204.47;;;12.13
76381;BMP280;65202;52.520;10.528;2023-03-31T09:24:04;99210.34;;;12.15
76381;BMP280;65202;52.520;10.528;2023-03-31T09:26:48;99213.75;;;12.19
76381;BMP280;65202;52.520;10.528;2023-03-31T09:29:21;99202.75;;;12.09
76381;BMP280;65202;52.520;10.528;2023-03-31T09:32:28;99198.81;;;12.26
76381;BMP280;65202;52.520;10.528;2023-03-31T09:35:12;99192.94;;;12.27
76381;BMP280;65202;52.520;10.528;2023-03-31T09:37:42;99191.28;;;12.26
76381;BMP280;65202;52.520;10.528;2023-03-31T09:40:16;99187.88;;;12.21
76381;BMP280;65202;52.520;10.528;2023-03-31T09:43:35;99182.09;;;12.30
76381;BMP280;65202;52.520;10.528;2023-03-31T09:45:47;99179.38;;;12.15
76381;BMP280;65202;52.520;10.528;2023-03-31T09:48:35;99176.97;;;12.19
76381;BMP280;65202;52.520;10.528;2023-03-31T09:51:06;99182.75;;;12.15
76381;BMP280;65202;52.520;10.528;2023-03-31T09:54:02;99176.16;;;12.23
76381;BMP280;65202;52.520;10.528;2023-03-31T09:59:21;99169.19;;;12.00
76381;BMP280;65202;52.520;10.528;2023-03-31T10:01:51;99165.00;;;12.02
76381;BMP280;65202;52.520;10.528;2023-03-31T10:04:25;99159.28;;;12.10
76381;BMP280;65202;52.520;10.528;2023-03-31T10:06:56;99157.66;;;12.12
76381;BMP280;65202;52.520;10.528;2023-03-31T10:09:28;99151.09;;;12.23
76381;BMP280;65202;52.520;10.528;2023-03-31T10:12:07;99142.00;;;12.31
76381;BMP280;65202;52.520;10.528;2023-03-31T10:14:46;99146.84;;;12.18
76381;BMP280;65202;52.520;10.528;2023-03-31T10:17:18;99144.25;;;12.10
76381;BMP280;65202;52.520;10.528;2023-03-31T10:19:57;99147.78;;;12.27
76381;BMP280;65202;52.520;10.528;2023-03-31T10:22:32;99146.94;;;12.25
76381;BMP280;65202;52.520;10.528;2023-03-31T10:25:22;99140.66;;;11.93
76381;BMP280;65202;52.520;10.528;2023-03-31T10:27:55;99139.94;;;12.02
76381;BMP280;65202;52.520;10.528;2023-03-31T10:30:33;99137.53;;;12.09
76381;BMP280;65202;52.520;10.528;2023-03-31T10:33:05;99137.53;;;12.09
76381;BMP280;65202;52.520;10.528;2023-03-31T10:35:53;99136.72;;;12.10
76381;BMP280;65202;52.520;10.528;2023-03-31T10:38:36;99136.50;;;11.95
76381;BMP280;65202;52.520;10.528;2023-03-31T10:41:08;99135.63;;;11.93
76381;BMP280;65202;52.520;10.528;2023-03-31T10:43:41;99141.53;;;11.97
76381;BMP280;65202;52.520;10.528;2023-03-31T10:46:13;99127.41;;;12.03
76381;BMP280;65202;52.520;10.528;2023-03-31T10:48:41;99129.00;;;11.95
76381;BMP280;65202;52.520;10.528;2023-03-31T10:51:17;99130.69;;;11.96
76381;BMP280;65202;52.520;10.528;2023-03-31T10:53:48;99132.94;;;11.79
76381;BMP280;65202;52.520;10.528;2023-03-31T10:56:26;99129.59;;;11.80
76381;BMP280;65202;52.520;10.528;2023-03-31T10:59:23;99128.75;;;11.78
76381;BMP280;65202;52.520;10.528;2023-03-31T11:05:02;99131.75;;;11.56
76381;BMP280;65202;52.520;10.528;2023-03-31T11:08:00;99127.59;;;11.55
76381;BMP280;65202;52.520;10.528;2023-03-31T11:10:52;99133.63;;;11.69
76381;BMP280;65202;52.520;10.528;2023-03-31T11:22:53;99124.41;;;11.66
76381;BMP280;65202;52.520;10.528;2023-03-31T11:25:38;99113.09;;;11.37
76381;BMP280;65202;52.520;10.528;2023-03-31T11:31:34;99115.72;;;11.46
76381;BMP280;65202;52.520;10.528;2023-03-31T11:37:22;99115.63;;;11.40
76381;BMP280;65202;52.520;10.528;2023-03-31T11:40:31;99114.63;;;11.31
76381;BMP280;65202;52.520;10.528;2023-03-31T11:54:24;99099.41;;;11.18
76381;BMP280;65202;52.520;10.528;2023-03-31T11:57:26;99109.19;;;11.04
76381;BMP280;65202;52.520;10.528;2023-03-31T12:00:05;99101.81;;;11.13
76381;BMP280;65202;52.520;10.528;2023-03-31T12:03:11;99106.69;;;11.04
76381;BMP280;65202;52.520;10.528;2023-03-31T12:05:49;99107.56;;;11.06
76381;BMP280;65202;52.520;10.528;2023-03-31T12:08:38;99095.41;;;11.29
76381;BMP280;65202;52.520;10.528;2023-03-31T12:11:30;99085.91;;;11.10
76381;BMP280;65202;52.520;10.528;2023-03-31T12:14:21;99086.50;;;11.48
76381;BMP280;65202;52.520;10.528;2023-03-31T12:17:13;99083.47;;;11.13
76381;BMP280;65202;52.520;10.528;2023-03-31T12:19:56;99081.03;;;11.17
76381;BMP280;65202;52.520;10.528;2023-03-31T12:22:42;99082.06;;;11.31
76381;BMP280;65202;52.520;10.528;2023-03-31T12:25:15;99085.97;;;11.11
76381;BMP280;65202;52.520;10.528;2023-03-31T12:27:49;99080.53;;;11.37
76381;BMP280;65202;52.520;10.528;2023-03-31T12:30:25;99087.06;;;11.29
76381;BMP280;65202;52.520;10.528;2023-03-31T12:36:16;99074.72;;;11.40
76381;BMP280;65202;52.520;10.528;2023-03-31T12:38:59;99074.72;;;11.41
76381;BMP280;65202;52.520;10.528;2023-03-31T12:42:03;99076.25;;;11.32
76381;BMP280;65202;52.520;10.528;2023-03-31T12:45:00;99069.59;;;11.34
76381;BMP280;65202;52.520;10.528;2023-03-31T12:50:37;99065.75;;;11.54
76381;BMP280;65202;52.520;10.528;2023-03-31T12:53:30;99062.22;;;11.44
76381;BMP280;65202;52.520;10.528;2023-03-31T12:56:05;99058.47;;;11.72
76381;BMP280;65202;52.520;10.528;2023-03-31T12:58:41;99060.31;;;11.85
76381;BMP280;65202;52.520;10.528;2023-03-31T13:04:26;99060.16;;;11.73
76381;BMP280;65202;52.520;10.528;2023-03-31T13:06:55;99051.56;;;11.56
76381;BMP280;65202;52.520;10.528;2023-03-31T13:09:43;99047.56;;;11.67
76381;BMP280;65202;52.520;10.528;2023-03-31T13:12:15;99045.91;;;11.69
76381;BMP280;65202;52.520;10.528;2023-03-31T13:14:46;99040.91;;;11.70
76381;BMP280;65202;52.520;10.528;2023-03-31T13:17:34;99033.38;;;11.69
76381;BMP280;65202;52.520;10.528;2023-03-31T13:20:29;99023.56;;;11.84
76381;BMP280;65202;52.520;10.528;2023-03-31T13:23:04;99020.88;;;11.72
76381;BMP280;65202;52.520;10.528;2023-03-31T13:25:41;99023.69;;;11.98
76381;BMP280;65202;52.520;10.528;2023-03-31T13:34:07;99021.97;;;11.92
76381;BMP280;65202;52.520;10.528;2023-03-31T13:36:42;99010.50;;;12.13
76381;BMP280;65202;52.520;10.528;2023-03-31T13:39:39;99004.78;;;12.24
76381;BMP280;65202;52.520;10.528;2023-03-31T13:45:03;98992.59;;;12.66
76381;BMP280;65202;52.520;10.528;2023-03-31T13:50:59;98982.06;;;13.03
76381;BMP280;65202;52.520;10.528;2023-03-31T13:54:38;98978.72;;;13.07
76381;BMP280;65202;52.520;10.528;2023-03-31T14:01:14;98981.28;;;13.13
76381;BMP280;65202;52.520;10.528;2023-03-31T14:09:51;98970.59;;;13.49
76381;BMP280;65202;52.520;10.528;2023-03-31T14:12:34;98965.34;;;13.12
76381;BMP280;65202;52.520;10.528;2023-03-31T14:15:03;98968.81;;;13.30
76381;BMP280;65202;52.520;10.528;2023-03-31T14:17:36;98971.19;;;13.10
76381;BMP280;65202;52.520;10.528;2023-03-31T14:20:20;98963.75;;;13.24
76381;BMP280;65202;52.520;10.528;2023-03-31T14:26:12;98972.84;;;13.02
76381;BMP280;65202;52.520;10.528;2023-03-31T14:29:13;98963.75;;;13.20
76381;BMP280;65202;52.520;10.528;2023-03-31T14:35:32;98968.53;;;12.86
76381;BMP280;65202;52.520;10.528;2023-03-31T14:38:10;98965.09;;;12.81
76381;BMP280;65202;52.520;10.528;2023-03-31T14:40:50;98961.16;;;13.05
76381;BMP280;65202;52.520;10.528;2023-03-31T14:43:26;98965.09;;;12.81
76381;BMP280;65202;52.520;10.528;2023-03-31T14:46:07;98961.97;;;13.04
76381;BMP280;65202;52.520;10.528;2023-03-31T14:48:46;98961.88;;;12.92
76381;BMP280;65202;52.520;10.528;2023-03-31T14:51:25;98960.88;;;12.74
76381;BMP280;65202;52.520;10.528;2023-03-31T14:53:59;98963.53;;;12.89
76381;BMP280;65202;52.520;10.528;2023-03-31T14:56:37;98945.09;;;12.87
76381;BMP280;65202;52.520;10.528;2023-03-31T14:59:07;98955.16;;;12.88
76381;BMP280;65202;52.520;10.528;2023-03-31T15:01:35;98952.69;;;12.96
76381;BMP280;65202;52.520;10.528;2023-03-31T15:04:12;98958.66;;;13.11
76381;BMP280;65202;52.520;10.528;2023-03-31T15:06:45;98957.81;;;13.11
76381;BMP280;65202;52.520;10.528;2023-03-31T15:09:23;98947.03;;;13.31
76381;BMP280;65202;52.520;10.528;2023-03-31T15:11:58;98944.47;;;13.23
76381;BMP280;65202;52.520;10.528;2023-03-31T15:14:30;98945.34;;;13.23
76381;BMP280;65202;52.520;10.528;2023-03-31T15:17:00;98952.84;;;13.20
76381;BMP280;65202;52.520;10.528;2023-03-31T15:19:31;98945.31;;;13.20
76381;BMP280;65202;52.520;10.528;2023-03-31T15:22:07;98948.56;;;13.04
76381;BMP280;65202;52.520;10.528;2023-03-31T15:24:42;98949.47;;;13.12
76381;BMP280;65202;52.520;10.528;2023-03-31T15:27:31;98954.47;;;13.12
76381;BMP280;65202;52.520;10.528;2023-03-31T15:30:11;98946.03;;;13.01
76381;BMP280;65202;52.520;10.528;2023-03-31T15:32:43;98951.81;;;12.86
76381;BMP280;65202;52.520;10.528;2023-03-31T15:35:32;98949.34;;;12.94
76381;BMP280;65202;52.520;10.528;2023-03-31T15:38:03;98957.00;;;13.10
76381;BMP280;65202;52.520;10.528;2023-03-31T15:40:36;98940.16;;;12.99
76381;BMP280;65202;52.520;10.528;2023-03-31T15:43:18;98949.34;;;12.94
76381;BMP280;65202;52.520;10.528;2023-03-31T15:46:00;98952.69;;;12.93
76381;BMP280;65202;52.520;10.528;2023-03-31T15:48:32;98946.00;;;12.95
76381;BMP280;65202;52.520;10.528;2023-03-31T15:51:05;98945.84;;;12.77
76381;BMP280;65202;52.520;10.528;2023-03-31T15:53:44;98941.69;;;12.83
76381;BMP280;65202;52.520;10.528;2023-03-31T15:58:56;98937.66;;;13.00
76381;BMP280;65202;52.520;10.528;2023-03-31T16:01:32;98942.66;;;12.97
76381;BMP280;65202;52.520;10.528;2023-03-31T16:04:06;98946.84;;;12.98
76381;BMP280;65202;52.520;10.528;2023-03-31T16:06:54;98942.75;;;13.08
76381;BMP280;65202;52.520;10.528;2023-03-31T16:09:38;98941.06;;;13.07
76381;BMP280;65202;52.520;10.528;2023-03-31T16:12:36;98938.63;;;13.26
76381;BMP280;65202;52.520;10.528;2023-03-31T16:15:17;98941.22;;;13.39
76381;BMP280;65202;52.520;10.528;2023-03-31T16:18:36;98936.13;;;13.24
76381;BMP280;65202;52.520;10.528;2023-03-31T16:21:07;98938.50;;;13.01
76381;BMP280;65202;52.520;10.528;2023-03-31T16:23:39;98937.75;;;13.20
76381;BMP280;65202;52.520;10.528;2023-03-31T16:26:07;98940.88;;;12.83
76381;BMP280;65202;52.520;10.528;2023-03-31T16:28:37;98937.63;;;12.99
76381;BMP280;65202;52.520;10.528;2023-03-31T16:31:04;98936.75;;;12.89